sensor_id;sensor_type;location;lat;lon;timestamp;P1;durP1;ratioP1;P2;durP2;ratioP2
44110;SDS011;29774;52.664;5.074;2022-11-20T00:01:25;5.53;;;4.68;;
44110;SDS011;29774;52.664;5.074;2022-11-20T00:03:52;5.97;;;4.80;;
44110;SDS011;29774;52.664;5.074;2022-11-20T00:06:19;6.97;;;5.13;;
44110;SDS011;29774;52.664;5.074;2022-11-20T00:08:46;6.80;;;5.22;;
44110;SDS011;29774;52.664;5.074;2022-11-20T00:11:13;7.00;;;5.43;;
44110;SDS011;29774;52.664;5.074;2022-11-20T00:13:40;7.05;;;5.22;;
44110;SDS011;29774;52.664;5.074;2022-11-20T00:16:09;6.85;;;4.80;;
44110;SDS011;29774;52.664;5.074;2022-11-20T00:18:35;6.30;;;4.88;;
44110;SDS011;29774;52.664;5.074;2022-11-20T00:21:04;6.03;;;4.78;;
44110;SDS011;29774;52.664;5.074;2022-11-20T00:23:33;6.63;;;5.60;;
44110;SDS011;29774;52.664;5.074;2022-11-20T00:26:05;5.72;;;4.47;;
44110;SDS011;29774;52.664;5.074;2022-11-20T00:28:32;4.78;;;4.30;;
44110;SDS011;29774;52.664;5.074;2022-11-20T00:31:02;7.50;;;5.22;;
44110;SDS011;29774;52.664;5.074;2022-11-20T00:33:46;6.15;;;5.00;;
44110;SDS011;29774;52.664;5.074;2022-11-20T00:36:31;5.13;;;4.47;;
44110;SDS011;29774;52.664;5.074;2022-11-20T00:38:58;5.30;;;4.60;;
44110;SDS011;29774;52.664;5.074;2022-11-20T00:41:25;6.05;;;5.07;;
44110;SDS011;29774;52.664;5.074;2022-11-20T00:43:52;6.40;;;4.65;;
44110;SDS011;29774;52.664;5.074;2022-11-20T00:46:20;7.00;;;4.57;;
44110;SDS011;29774;52.664;5.074;2022-11-20T00:48:47;7.32;;;5.10;;
44110;SDS011;29774;52.664;5.074;2022-11-20T00:51:14;6.55;;;5.43;;
44110;SDS011;29774;52.664;5.074;2022-11-20T00:53:42;6.38;;;4.93;;
44110;SDS011;29774;52.664;5.074;2022-11-20T00:56:12;6.03;;;5.38;;
44110;SDS011;29774;52.664;5.074;2022-11-20T00:58:39;6.55;;;4.68;;
44110;SDS011;29774;52.664;5.074;2022-11-20T01:01:10;7.10;;;5.75;;
44110;SDS011;29774;52.664;5.074;2022-11-20T01:03:42;5.57;;;4.85;;
44110;SDS011;29774;52.664;5.074;2022-11-20T01:06:10;6.63;;;5.38;;
44110;SDS011;29774;52.664;5.074;2022-11-20T01:08:38;5.78;;;4.95;;
44110;SDS011;29774;52.664;5.074;2022-11-20T01:11:08;6.55;;;5.30;;
44110;SDS011;29774;52.664;5.074;2022-11-20T01:13:35;8.20;;;5.45;;
44110;SDS011;29774;52.664;5.074;2022-11-20T01:16:03;6.20;;;5.35;;
44110;SDS011;29774;52.664;5.074;2022-11-20T01:18:40;12.30;;;8.15;;
44110;SDS011;29774;52.664;5.074;2022-11-20T01:21:09;9.05;;;6.60;;
44110;SDS011;29774;52.664;5.074;2022-11-20T01:23:37;7.95;;;6.35;;
44110;SDS011;29774;52.664;5.074;2022-11-20T01:26:05;8.73;;;6.32;;
44110;SDS011;29774;52.664;5.074;2022-11-20T01:28:32;16.70;;;9.52;;
44110;SDS011;29774;52.664;5.074;2022-11-20T01:30:59;12.73;;;8.75;;
44110;SDS011;29774;52.664;5.074;2022-11-20T01:33:25;14.55;;;9.65;;
44110;SDS011;29774;52.664;5.074;2022-11-20T01:35:51;28.88;;;15.52;;
44110;SDS011;29774;52.664;5.074;2022-11-20T01:38:17;14.88;;;8.98;;
44110;SDS011;29774;52.664;5.074;2022-11-20T01:40:42;14.70;;;8.90;;
44110;SDS011;29774;52.664;5.074;2022-11-20T01:43:18;9.93;;;7.43;;
44110;SDS011;29774;52.664;5.074;2022-11-20T01:48:19;8.18;;;6.13;;
44110;SDS011;29774;52.664;5.074;2022-11-20T01:50:49;8.10;;;6.25;;
44110;SDS011;29774;52.664;5.074;2022-11-20T01:53:17;8.30;;;6.20;;
44110;SDS011;29774;52.664;5.074;2022-11-20T01:55:47;8.45;;;6.68;;
44110;SDS011;29774;52.664;5.074;2022-11-20T01:58:15;7.97;;;6.68;;
44110;SDS011;29774;52.664;5.074;2022-11-20T02:00:43;7.47;;;5.97;;
44110;SDS011;29774;52.664;5.074;2022-11-20T02:03:10;6.82;;;6.10;;
44110;SDS011;29774;52.664;5.074;2022-11-20T02:08:39;8.25;;;5.97;;
44110;SDS011;29774;52.664;5.074;2022-11-20T02:11:05;8.75;;;6.55;;
44110;SDS011;29774;52.664;5.074;2022-11-20T02:13:32;8.80;;;5.95;;
44110;SDS011;29774;52.664;5.074;2022-11-20T02:18:50;9.82;;;6.05;;
44110;SDS011;29774;52.664;5.074;2022-11-20T02:24:10;8.18;;;6.00;;
44110;SDS011;29774;52.664;5.074;2022-11-20T02:29:24;9.35;;;6.25;;
44110;SDS011;29774;52.664;5.074;2022-11-20T02:31:59;8.40;;;7.00;;
44110;SDS011;29774;52.664;5.074;2022-11-20T02:34:26;7.22;;;6.45;;
44110;SDS011;29774;52.664;5.074;2022-11-20T02:36:52;9.27;;;6.85;;
44110;SDS011;29774;52.664;5.074;2022-11-20T02:39:18;8.70;;;6.97;;
44110;SDS011;29774;52.664;5.074;2022-11-20T02:41:45;9.82;;;6.72;;
44110;SDS011;29774;52.664;5.074;2022-11-20T02:44:11;9.50;;;6.78;;
44110;SDS011;29774;52.664;5.074;2022-11-20T02:46:37;8.23;;;6.55;;
44110;SDS011;29774;52.664;5.074;2022-11-20T02:49:03;11.07;;;7.63;;
44110;SDS011;29774;52.664;5.074;2022-11-20T02:51:29;9.95;;;7.40;;
44110;SDS011;29774;52.664;5.074;2022-11-20T02:53:55;9.30;;;7.43;;
44110;SDS011;29774;52.664;5.074;2022-11-20T02:56:21;9.55;;;7.70;;
44110;SDS011;29774;52.664;5.074;2022-11-20T02:58:47;10.50;;;7.68;;
44110;SDS011;29774;52.664;5.074;2022-11-20T03:01:12;12.02;;;8.07;;
44110;SDS011;29774;52.664;5.074;2022-11-20T03:03:38;9.07;;;7.10;;
44110;SDS011;29774;52.664;5.074;2022-11-20T03:06:04;8.90;;;6.72;;
44110;SDS011;29774;52.664;5.074;2022-11-20T03:08:29;8.50;;;7.43;;
44110;SDS011;29774;52.664;5.074;2022-11-20T03:10:55;8.23;;;6.30;;
44110;SDS011;29774;52.664;5.074;2022-11-20T03:13:20;8.68;;;6.00;;
44110;SDS011;29774;52.664;5.074;2022-11-20T03:15:46;8.23;;;6.93;;
44110;SDS011;29774;52.664;5.074;2022-11-20T03:18:11;7.55;;;5.97;;
44110;SDS011;29774;52.664;5.074;2022-11-20T03:20:38;8.52;;;6.45;;
44110;SDS011;29774;52.664;5.074;2022-11-20T03:23:04;7.78;;;6.22;;
44110;SDS011;29774;52.664;5.074;2022-11-20T03:25:30;8.38;;;6.47;;
44110;SDS011;29774;52.664;5.074;2022-11-20T03:27:55;7.75;;;6.25;;
44110;SDS011;29774;52.664;5.074;2022-11-20T03:30:21;8.52;;;6.57;;
44110;SDS011;29774;52.664;5.074;2022-11-20T03:32:47;9.35;;;6.47;;
44110;SDS011;29774;52.664;5.074;2022-11-20T03:35:12;9.02;;;6.32;;
44110;SDS011;29774;52.664;5.074;2022-11-20T03:37:38;7.18;;;5.80;;
44110;SDS011;29774;52.664;5.074;2022-11-20T03:40:04;8.73;;;6.72;;
44110;SDS011;29774;52.664;5.074;2022-11-20T03:42:30;10.25;;;6.05;;
44110;SDS011;29774;52.664;5.074;2022-11-20T03:45:11;7.55;;;6.53;;
44110;SDS011;29774;52.664;5.074;2022-11-20T03:47:38;7.68;;;6.05;;
44110;SDS011;29774;52.664;5.074;2022-11-20T03:50:04;8.50;;;6.30;;
44110;SDS011;29774;52.664;5.074;2022-11-20T03:52:30;7.30;;;6.05;;
44110;SDS011;29774;52.664;5.074;2022-11-20T03:54:55;8.85;;;5.97;;
44110;SDS011;29774;52.664;5.074;2022-11-20T03:57:21;8.90;;;6.65;;
44110;SDS011;29774;52.664;5.074;2022-11-20T03:59:46;9.18;;;6.55;;
44110;SDS011;29774;52.664;5.074;2022-11-20T04:02:12;6.95;;;5.38;;
44110;SDS011;29774;52.664;5.074;2022-11-20T04:04:37;8.18;;;6.30;;
44110;SDS011;29774;52.664;5.074;2022-11-20T04:07:03;7.22;;;5.82;;
44110;SDS011;29774;52.664;5.074;2022-11-20T04:09:28;8.55;;;5.68;;
44110;SDS011;29774;52.664;5.074;2022-11-20T04:11:54;9.40;;;6.57;;
44110;SDS011;29774;52.664;5.074;2022-11-20T04:14:19;8.85;;;6.35;;
44110;SDS011;29774;52.664;5.074;2022-11-20T04:16:45;8.63;;;6.80;;
44110;SDS011;29774;52.664;5.074;2022-11-20T04:19:12;7.20;;;5.75;;
44110;SDS011;29774;52.664;5.074;2022-11-20T04:21:40;7.22;;;5.78;;
44110;SDS011;29774;52.664;5.074;2022-11-20T04:24:06;7.60;;;5.65;;
44110;SDS011;29774;52.664;5.074;2022-11-20T04:26:32;6.43;;;5.40;;
44110;SDS011;29774;52.664;5.074;2022-11-20T04:28:58;8.13;;;6.40;;
44110;SDS011;29774;52.664;5.074;2022-11-20T04:31:27;7.20;;;6.32;;
44110;SDS011;29774;52.664;5.074;2022-11-20T04:33:54;6.82;;;5.93;;
44110;SDS011;29774;52.664;5.074;2022-11-20T04:36:21;8.57;;;6.45;;
44110;SDS011;29774;52.664;5.074;2022-11-20T04:39:21;8.10;;;5.82;;
44110;SDS011;29774;52.664;5.074;2022-11-20T04:41:40;7.88;;;6.20;;
44110;SDS011;29774;52.664;5.074;2022-11-20T04:44:06;8.20;;;6.30;;
44110;SDS011;29774;52.664;5.074;2022-11-20T04:46:36;8.20;;;5.90;;
44110;SDS011;29774;52.664;5.074;2022-11-20T04:49:03;7.38;;;6.35;;
44110;SDS011;29774;52.664;5.074;2022-11-20T04:51:29;8.73;;;6.35;;
44110;SDS011;29774;52.664;5.074;2022-11-20T04:53:54;7.15;;;5.70;;
44110;SDS011;29774;52.664;5.074;2022-11-20T04:56:20;8.82;;;6.43;;
44110;SDS011;29774;52.664;5.074;2022-11-20T04:58:46;6.97;;;5.90;;
44110;SDS011;29774;52.664;5.074;2022-11-20T05:01:12;6.57;;;5.88;;
44110;SDS011;29774;52.664;5.074;2022-11-20T05:03:43;6.93;;;5.63;;
44110;SDS011;29774;52.664;5.074;2022-11-20T05:06:14;7.70;;;5.82;;
44110;SDS011;29774;52.664;5.074;2022-11-20T05:08:41;7.78;;;6.18;;
44110;SDS011;29774;52.664;5.074;2022-11-20T05:11:10;7.25;;;5.97;;
44110;SDS011;29774;52.664;5.074;2022-11-20T05:13:41;7.22;;;5.68;;
44110;SDS011;29774;52.664;5.074;2022-11-20T05:16:11;8.05;;;6.25;;
44110;SDS011;29774;52.664;5.074;2022-11-20T05:18:41;6.93;;;5.07;;
44110;SDS011;29774;52.664;5.074;2022-11-20T05:21:07;7.25;;;5.45;;
44110;SDS011;29774;52.664;5.074;2022-11-20T05:23:34;7.60;;;5.30;;
44110;SDS011;29774;52.664;5.074;2022-11-20T05:26:01;8.70;;;5.90;;
44110;SDS011;29774;52.664;5.074;2022-11-20T05:28:27;8.18;;;5.63;;
44110;SDS011;29774;52.664;5.074;2022-11-20T05:30:54;7.05;;;5.97;;
44110;SDS011;29774;52.664;5.074;2022-11-20T05:33:20;7.07;;;6.20;;
44110;SDS011;29774;52.664;5.074;2022-11-20T05:35:46;6.43;;;5.40;;
44110;SDS011;29774;52.664;5.074;2022-11-20T05:38:11;6.10;;;5.45;;
44110;SDS011;29774;52.664;5.074;2022-11-20T05:40:37;6.45;;;5.80;;
44110;SDS011;29774;52.664;5.074;2022-11-20T05:43:02;7.78;;;5.25;;
44110;SDS011;29774;52.664;5.074;2022-11-20T05:45:28;6.95;;;5.47;;
44110;SDS011;29774;52.664;5.074;2022-11-20T05:47:57;7.38;;;5.35;;
44110;SDS011;29774;52.664;5.074;2022-11-20T05:50:23;8.35;;;5.57;;
44110;SDS011;29774;52.664;5.074;2022-11-20T05:52:49;6.53;;;5.13;;
44110;SDS011;29774;52.664;5.074;2022-11-20T05:55:14;6.68;;;5.78;;
44110;SDS011;29774;52.664;5.074;2022-11-20T05:57:40;6.80;;;5.05;;
44110;SDS011;29774;52.664;5.074;2022-11-20T06:00:06;10.75;;;5.72;;
44110;SDS011;29774;52.664;5.074;2022-11-20T06:02:34;8.50;;;5.88;;
44110;SDS011;29774;52.664;5.074;2022-11-20T06:05:00;7.93;;;5.57;;
44110;SDS011;29774;52.664;5.074;2022-11-20T06:07:26;7.68;;;5.88;;
44110;SDS011;29774;52.664;5.074;2022-11-20T06:09:51;7.57;;;6.07;;
44110;SDS011;29774;52.664;5.074;2022-11-20T06:12:17;8.50;;;6.43;;
44110;SDS011;29774;52.664;5.074;2022-11-20T06:14:42;9.50;;;6.22;;
44110;SDS011;29774;52.664;5.074;2022-11-20T06:17:08;7.78;;;6.47;;
44110;SDS011;29774;52.664;5.074;2022-11-20T06:19:33;7.20;;;6.18;;
44110;SDS011;29774;52.664;5.074;2022-11-20T06:21:59;6.85;;;5.75;;
44110;SDS011;29774;52.664;5.074;2022-11-20T06:24:25;9.80;;;5.93;;
44110;SDS011;29774;52.664;5.074;2022-11-20T06:26:50;8.07;;;5.80;;
44110;SDS011;29774;52.664;5.074;2022-11-20T06:29:16;7.00;;;6.15;;
44110;SDS011;29774;52.664;5.074;2022-11-20T06:31:41;8.43;;;5.82;;
44110;SDS011;29774;52.664;5.074;2022-11-20T06:34:07;7.25;;;5.85;;
44110;SDS011;29774;52.664;5.074;2022-11-20T06:36:33;7.90;;;6.32;;
44110;SDS011;29774;52.664;5.074;2022-11-20T06:38:59;8.30;;;6.32;;
44110;SDS011;29774;52.664;5.074;2022-11-20T06:41:25;10.82;;;7.15;;
44110;SDS011;29774;52.664;5.074;2022-11-20T06:43:51;9.52;;;7.13;;
44110;SDS011;29774;52.664;5.074;2022-11-20T06:46:17;7.97;;;6.68;;
44110;SDS011;29774;52.664;5.074;2022-11-20T06:48:43;12.13;;;7.45;;
44110;SDS011;29774;52.664;5.074;2022-11-20T06:51:09;9.77;;;7.53;;
44110;SDS011;29774;52.664;5.074;2022-11-20T06:53:35;9.07;;;7.05;;
44110;SDS011;29774;52.664;5.074;2022-11-20T06:56:01;10.65;;;8.18;;
44110;SDS011;29774;52.664;5.074;2022-11-20T06:58:28;10.68;;;7.20;;
44110;SDS011;29774;52.664;5.074;2022-11-20T07:01:02;8.70;;;6.78;;
44110;SDS011;29774;52.664;5.074;2022-11-20T07:03:38;11.27;;;7.75;;
44110;SDS011;29774;52.664;5.074;2022-11-20T07:06:04;10.35;;;7.03;;
44110;SDS011;29774;52.664;5.074;2022-11-20T07:08:31;9.52;;;6.65;;
44110;SDS011;29774;52.664;5.074;2022-11-20T07:10:57;8.80;;;7.03;;
44110;SDS011;29774;52.664;5.074;2022-11-20T07:13:25;9.80;;;6.80;;
44110;SDS011;29774;52.664;5.074;2022-11-20T07:15:51;8.85;;;7.03;;
44110;SDS011;29774;52.664;5.074;2022-11-20T07:18:16;11.45;;;7.85;;
44110;SDS011;29774;52.664;5.074;2022-11-20T07:20:42;9.65;;;6.85;;
44110;SDS011;29774;52.664;5.074;2022-11-20T07:23:07;11.65;;;7.93;;
44110;SDS011;29774;52.664;5.074;2022-11-20T07:25:33;10.57;;;7.93;;
44110;SDS011;29774;52.664;5.074;2022-11-20T07:27:59;10.52;;;8.05;;
44110;SDS011;29774;52.664;5.074;2022-11-20T07:30:29;11.52;;;9.02;;
44110;SDS011;29774;52.664;5.074;2022-11-20T07:32:55;12.40;;;8.77;;
44110;SDS011;29774;52.664;5.074;2022-11-20T07:35:22;13.25;;;9.57;;
44110;SDS011;29774;52.664;5.074;2022-11-20T07:37:51;10.02;;;8.25;;
44110;SDS011;29774;52.664;5.074;2022-11-20T07:40:17;10.52;;;8.25;;
44110;SDS011;29774;52.664;5.074;2022-11-20T07:42:49;10.02;;;7.70;;
44110;SDS011;29774;52.664;5.074;2022-11-20T07:45:19;11.48;;;8.35;;
44110;SDS011;29774;52.664;5.074;2022-11-20T07:47:46;10.85;;;8.05;;
44110;SDS011;29774;52.664;5.074;2022-11-20T07:50:12;10.15;;;8.15;;
44110;SDS011;29774;52.664;5.074;2022-11-20T07:52:38;11.23;;;8.23;;
44110;SDS011;29774;52.664;5.074;2022-11-20T07:55:04;11.35;;;7.68;;
44110;SDS011;29774;52.664;5.074;2022-11-20T07:57:30;10.35;;;8.02;;
44110;SDS011;29774;52.664;5.074;2022-11-20T07:59:56;10.45;;;7.40;;
44110;SDS011;29774;52.664;5.074;2022-11-20T08:02:21;10.55;;;7.97;;
44110;SDS011;29774;52.664;5.074;2022-11-20T08:04:48;10.50;;;8.32;;
44110;SDS011;29774;52.664;5.074;2022-11-20T08:07:13;10.63;;;8.43;;
44110;SDS011;29774;52.664;5.074;2022-11-20T08:09:39;10.65;;;8.43;;
44110;SDS011;29774;52.664;5.074;2022-11-20T08:12:05;12.10;;;8.80;;
44110;SDS011;29774;52.664;5.074;2022-11-20T08:14:50;12.02;;;8.52;;
44110;SDS011;29774;52.664;5.074;2022-11-20T08:17:16;11.00;;;8.57;;
44110;SDS011;29774;52.664;5.074;2022-11-20T08:19:41;14.25;;;9.10;;
44110;SDS011;29774;52.664;5.074;2022-11-20T08:22:07;14.27;;;9.23;;
44110;SDS011;29774;52.664;5.074;2022-11-20T08:24:32;12.60;;;9.63;;
44110;SDS011;29774;52.664;5.074;2022-11-20T08:26:58;13.77;;;9.25;;
44110;SDS011;29774;52.664;5.074;2022-11-20T08:29:24;13.23;;;9.73;;
44110;SDS011;29774;52.664;5.074;2022-11-20T08:31:53;14.23;;;9.70;;
44110;SDS011;29774;52.664;5.074;2022-11-20T08:34:18;12.98;;;9.95;;
44110;SDS011;29774;52.664;5.074;2022-11-20T08:36:44;12.70;;;9.68;;
44110;SDS011;29774;52.664;5.074;2022-11-20T08:39:12;13.60;;;9.48;;
44110;SDS011;29774;52.664;5.074;2022-11-20T08:41:38;14.60;;;9.48;;
44110;SDS011;29774;52.664;5.074;2022-11-20T08:44:05;13.40;;;10.02;;
44110;SDS011;29774;52.664;5.074;2022-11-20T08:46:38;11.98;;;9.25;;
44110;SDS011;29774;52.664;5.074;2022-11-20T08:49:10;11.98;;;9.30;;
44110;SDS011;29774;52.664;5.074;2022-11-20T08:51:37;11.30;;;8.93;;
44110;SDS011;29774;52.664;5.074;2022-11-20T08:54:03;12.07;;;8.23;;
44110;SDS011;29774;52.664;5.074;2022-11-20T08:56:29;12.20;;;8.70;;
44110;SDS011;29774;52.664;5.074;2022-11-20T08:58:55;12.57;;;9.55;;
44110;SDS011;29774;52.664;5.074;2022-11-20T09:01:22;12.00;;;9.40;;
44110;SDS011;29774;52.664;5.074;2022-11-20T09:03:48;11.98;;;8.82;;
44110;SDS011;29774;52.664;5.074;2022-11-20T09:06:17;12.18;;;8.85;;
44110;SDS011;29774;52.664;5.074;2022-11-20T09:08:43;11.38;;;8.70;;
44110;SDS011;29774;52.664;5.074;2022-11-20T09:11:09;12.02;;;8.80;;
44110;SDS011;29774;52.664;5.074;2022-11-20T09:13:35;14.07;;;9.30;;
44110;SDS011;29774;52.664;5.074;2022-11-20T09:16:02;11.27;;;8.13;;
44110;SDS011;29774;52.664;5.074;2022-11-20T09:18:30;11.80;;;8.73;;
44110;SDS011;29774;52.664;5.074;2022-11-20T09:21:00;10.27;;;7.88;;
44110;SDS011;29774;52.664;5.074;2022-11-20T09:23:30;10.57;;;8.43;;
44110;SDS011;29774;52.664;5.074;2022-11-20T09:25:58;10.05;;;8.20;;
44110;SDS011;29774;52.664;5.074;2022-11-20T09:28:30;10.23;;;8.20;;
44110;SDS011;29774;52.664;5.074;2022-11-20T09:30:56;11.88;;;7.60;;
44110;SDS011;29774;52.664;5.074;2022-11-20T09:33:22;9.93;;;7.72;;
44110;SDS011;29774;52.664;5.074;2022-11-20T09:35:47;10.85;;;8.45;;
44110;SDS011;29774;52.664;5.074;2022-11-20T09:38:13;11.25;;;8.90;;
44110;SDS011;29774;52.664;5.074;2022-11-20T09:41:03;12.60;;;9.77;;
44110;SDS011;29774;52.664;5.074;2022-11-20T09:54:22;12.02;;;9.10;;
44110;SDS011;29774;52.664;5.074;2022-11-20T09:57:04;13.02;;;9.63;;
44110;SDS011;29774;52.664;5.074;2022-11-20T09:59:41;10.95;;;8.10;;
44110;SDS011;29774;52.664;5.074;2022-11-20T10:02:16;13.07;;;9.20;;
44110;SDS011;29774;52.664;5.074;2022-11-20T10:04:47;12.32;;;9.05;;
44110;SDS011;29774;52.664;5.074;2022-11-20T10:07:32;12.80;;;8.68;;
44110;SDS011;29774;52.664;5.074;2022-11-20T10:15:46;12.13;;;8.48;;
44110;SDS011;29774;52.664;5.074;2022-11-20T10:26:51;9.77;;;7.70;;
44110;SDS011;29774;52.664;5.074;2022-11-20T10:29:41;10.02;;;6.78;;
44110;SDS011;29774;52.664;5.074;2022-11-20T10:32:16;9.30;;;6.30;;
44110;SDS011;29774;52.664;5.074;2022-11-20T10:37:18;10.00;;;8.15;;
44110;SDS011;29774;52.664;5.074;2022-11-20T10:42:45;9.27;;;7.68;;
44110;SDS011;29774;52.664;5.074;2022-11-20T10:47:47;9.43;;;7.07;;
44110;SDS011;29774;52.664;5.074;2022-11-20T10:50:14;10.68;;;7.60;;
44110;SDS011;29774;52.664;5.074;2022-11-20T10:55:55;12.13;;;7.78;;
44110;SDS011;29774;52.664;5.074;2022-11-20T11:01:24;9.63;;;7.63;;
44110;SDS011;29774;52.664;5.074;2022-11-20T11:03:51;8.57;;;6.60;;
44110;SDS011;29774;52.664;5.074;2022-11-20T11:09:09;9.98;;;7.78;;
44110;SDS011;29774;52.664;5.074;2022-11-20T11:11:40;11.65;;;8.77;;
44110;SDS011;29774;52.664;5.074;2022-11-20T11:14:06;12.38;;;8.07;;
44110;SDS011;29774;52.664;5.074;2022-11-20T11:16:33;10.05;;;6.85;;
44110;SDS011;29774;52.664;5.074;2022-11-20T11:19:17;11.73;;;7.60;;
44110;SDS011;29774;52.664;5.074;2022-11-20T11:21:53;10.43;;;7.65;;
44110;SDS011;29774;52.664;5.074;2022-11-20T11:24:22;10.15;;;7.75;;
44110;SDS011;29774;52.664;5.074;2022-11-20T11:26:57;11.20;;;7.60;;
44110;SDS011;29774;52.664;5.074;2022-11-20T11:29:25;10.73;;;7.75;;
44110;SDS011;29774;52.664;5.074;2022-11-20T11:32:04;10.45;;;7.13;;
44110;SDS011;29774;52.664;5.074;2022-11-20T11:34:42;11.93;;;7.90;;
44110;SDS011;29774;52.664;5.074;2022-11-20T11:37:25;9.40;;;6.72;;
44110;SDS011;29774;52.664;5.074;2022-11-20T11:39:58;13.23;;;8.25;;
44110;SDS011;29774;52.664;5.074;2022-11-20T11:42:24;11.15;;;7.45;;
44110;SDS011;29774;52.664;5.074;2022-11-20T11:44:49;11.15;;;7.47;;
44110;SDS011;29774;52.664;5.074;2022-11-20T11:47:37;11.98;;;8.52;;
44110;SDS011;29774;52.664;5.074;2022-11-20T11:52:38;9.02;;;7.88;;
44110;SDS011;29774;52.664;5.074;2022-11-20T11:55:18;11.35;;;8.20;;
44110;SDS011;29774;52.664;5.074;2022-11-20T11:57:59;11.50;;;8.70;;
44110;SDS011;29774;52.664;5.074;2022-11-20T12:00:36;13.25;;;9.85;;
44110;SDS011;29774;52.664;5.074;2022-11-20T12:03:18;14.57;;;11.10;;
44110;SDS011;29774;52.664;5.074;2022-11-20T12:05:50;12.80;;;9.63;;
44110;SDS011;29774;52.664;5.074;2022-11-20T12:08:30;15.05;;;10.50;;
44110;SDS011;29774;52.664;5.074;2022-11-20T12:13:45;15.25;;;10.55;;
44110;SDS011;29774;52.664;5.074;2022-11-20T12:16:35;15.38;;;10.95;;
44110;SDS011;29774;52.664;5.074;2022-11-20T12:19:03;13.48;;;10.15;;
44110;SDS011;29774;52.664;5.074;2022-11-20T12:24:46;12.82;;;9.02;;
44110;SDS011;29774;52.664;5.074;2022-11-20T12:27:32;16.08;;;11.68;;
44110;SDS011;29774;52.664;5.074;2022-11-20T12:30:08;15.48;;;10.95;;
44110;SDS011;29774;52.664;5.074;2022-11-20T12:40:54;23.38;;;14.20;;
44110;SDS011;29774;52.664;5.074;2022-11-20T12:43:39;20.80;;;13.80;;
44110;SDS011;29774;52.664;5.074;2022-11-20T12:46:55;18.42;;;13.13;;
44110;SDS011;29774;52.664;5.074;2022-11-20T12:50:02;19.98;;;12.98;;
44110;SDS011;29774;52.664;5.074;2022-11-20T12:55:17;21.30;;;14.35;;
44110;SDS011;29774;52.664;5.074;2022-11-20T12:58:08;27.50;;;16.25;;
44110;SDS011;29774;52.664;5.074;2022-11-20T13:00:36;27.38;;;15.82;;
44110;SDS011;29774;52.664;5.074;2022-11-20T13:06:19;23.63;;;14.98;;
44110;SDS011;29774;52.664;5.074;2022-11-20T13:08:48;22.25;;;15.40;;
44110;SDS011;29774;52.664;5.074;2022-11-20T13:11:20;23.02;;;14.95;;
44110;SDS011;29774;52.664;5.074;2022-11-20T13:14:16;24.55;;;15.48;;
44110;SDS011;29774;52.664;5.074;2022-11-20T13:17:04;24.63;;;15.73;;
44110;SDS011;29774;52.664;5.074;2022-11-20T13:19:30;24.75;;;15.50;;
44110;SDS011;29774;52.664;5.074;2022-11-20T13:21:57;24.13;;;14.70;;
44110;SDS011;29774;52.664;5.074;2022-11-20T13:24:24;25.77;;;16.33;;
44110;SDS011;29774;52.664;5.074;2022-11-20T13:27:02;26.40;;;15.65;;
44110;SDS011;29774;52.664;5.074;2022-11-20T13:29:29;27.58;;;15.73;;
44110;SDS011;29774;52.664;5.074;2022-11-20T13:32:29;26.45;;;16.58;;
44110;SDS011;29774;52.664;5.074;2022-11-20T13:34:57;24.63;;;16.48;;
44110;SDS011;29774;52.664;5.074;2022-11-20T13:37:32;24.98;;;15.23;;
44110;SDS011;29774;52.664;5.074;2022-11-20T13:42:36;23.52;;;14.52;;
44110;SDS011;29774;52.664;5.074;2022-11-20T13:45:23;22.77;;;14.43;;
44110;SDS011;29774;52.664;5.074;2022-11-20T13:47:52;22.50;;;14.63;;
44110;SDS011;29774;52.664;5.074;2022-11-20T13:50:19;23.65;;;14.23;;
44110;SDS011;29774;52.664;5.074;2022-11-20T13:55:54;23.75;;;14.30;;
44110;SDS011;29774;52.664;5.074;2022-11-20T13:58:31;22.58;;;15.65;;
44110;SDS011;29774;52.664;5.074;2022-11-20T14:01:26;20.42;;;14.07;;
44110;SDS011;29774;52.664;5.074;2022-11-20T14:03:56;21.48;;;13.02;;
44110;SDS011;29774;52.664;5.074;2022-11-20T14:06:26;20.80;;;14.15;;
44110;SDS011;29774;52.664;5.074;2022-11-20T14:08:58;19.55;;;13.45;;
44110;SDS011;29774;52.664;5.074;2022-11-20T14:11:24;19.58;;;13.55;;
44110;SDS011;29774;52.664;5.074;2022-11-20T14:14:13;20.38;;;12.57;;
44110;SDS011;29774;52.664;5.074;2022-11-20T14:16:43;16.35;;;12.13;;
44110;SDS011;29774;52.664;5.074;2022-11-20T14:21:44;20.77;;;13.13;;
44110;SDS011;29774;52.664;5.074;2022-11-20T14:24:13;16.98;;;12.00;;
44110;SDS011;29774;52.664;5.074;2022-11-20T14:26:43;20.73;;;12.95;;
44110;SDS011;29774;52.664;5.074;2022-11-20T14:29:13;20.98;;;13.13;;
44110;SDS011;29774;52.664;5.074;2022-11-20T14:31:46;18.17;;;11.48;;
44110;SDS011;29774;52.664;5.074;2022-11-20T14:34:16;15.15;;;11.05;;
44110;SDS011;29774;52.664;5.074;2022-11-20T14:36:47;14.63;;;9.57;;
44110;SDS011;29774;52.664;5.074;2022-11-20T14:39:22;19.05;;;12.43;;
44110;SDS011;29774;52.664;5.074;2022-11-20T14:41:53;17.23;;;11.32;;
44110;SDS011;29774;52.664;5.074;2022-11-20T14:44:20;17.33;;;12.32;;
44110;SDS011;29774;52.664;5.074;2022-11-20T14:46:51;19.35;;;12.43;;
44110;SDS011;29774;52.664;5.074;2022-11-20T14:49:17;20.35;;;12.30;;
44110;SDS011;29774;52.664;5.074;2022-11-20T14:51:43;16.58;;;11.18;;
44110;SDS011;29774;52.664;5.074;2022-11-20T14:54:29;18.98;;;13.15;;
44110;SDS011;29774;52.664;5.074;2022-11-20T14:56:59;17.52;;;12.30;;
44110;SDS011;29774;52.664;5.074;2022-11-20T14:59:30;19.15;;;12.45;;
44110;SDS011;29774;52.664;5.074;2022-11-20T15:01:58;18.65;;;12.35;;
44110;SDS011;29774;52.664;5.074;2022-11-20T15:04:26;18.60;;;13.68;;
44110;SDS011;29774;52.664;5.074;2022-11-20T15:06:53;22.52;;;13.80;;
44110;SDS011;29774;52.664;5.074;2022-11-20T15:09:38;20.95;;;12.88;;
44110;SDS011;29774;52.664;5.074;2022-11-20T15:12:03;21.83;;;13.32;;
44110;SDS011;29774;52.664;5.074;2022-11-20T15:14:30;20.80;;;13.73;;
44110;SDS011;29774;52.664;5.074;2022-11-20T15:16:57;21.52;;;13.60;;
44110;SDS011;29774;52.664;5.074;2022-11-20T15:19:25;23.48;;;13.38;;
44110;SDS011;29774;52.664;5.074;2022-11-20T15:21:51;20.52;;;12.82;;
44110;SDS011;29774;52.664;5.074;2022-11-20T15:24:17;19.23;;;12.38;;
44110;SDS011;29774;52.664;5.074;2022-11-20T15:26:43;19.40;;;13.27;;
44110;SDS011;29774;52.664;5.074;2022-11-20T15:29:12;21.10;;;13.02;;
44110;SDS011;29774;52.664;5.074;2022-11-20T15:31:39;18.33;;;11.85;;
44110;SDS011;29774;52.664;5.074;2022-11-20T15:34:11;20.33;;;13.43;;
44110;SDS011;29774;52.664;5.074;2022-11-20T15:36:38;19.00;;;12.43;;
44110;SDS011;29774;52.664;5.074;2022-11-20T15:39:04;18.35;;;11.73;;
44110;SDS011;29774;52.664;5.074;2022-11-20T15:41:32;19.48;;;12.82;;
44110;SDS011;29774;52.664;5.074;2022-11-20T15:43:58;17.90;;;12.15;;
44110;SDS011;29774;52.664;5.074;2022-11-20T15:46:25;20.85;;;12.65;;
44110;SDS011;29774;52.664;5.074;2022-11-20T15:48:56;19.02;;;12.45;;
44110;SDS011;29774;52.664;5.074;2022-11-20T15:51:30;18.98;;;13.25;;
44110;SDS011;29774;52.664;5.074;2022-11-20T15:53:59;18.00;;;12.32;;
44110;SDS011;29774;52.664;5.074;2022-11-20T15:56:25;18.50;;;13.00;;
44110;SDS011;29774;52.664;5.074;2022-11-20T15:58:51;19.20;;;13.65;;
44110;SDS011;29774;52.664;5.074;2022-11-20T16:01:17;20.33;;;12.90;;
44110;SDS011;29774;52.664;5.074;2022-11-20T16:03:45;20.05;;;12.40;;
44110;SDS011;29774;52.664;5.074;2022-11-20T16:06:11;19.40;;;12.25;;
44110;SDS011;29774;52.664;5.074;2022-11-20T16:11:43;14.90;;;10.50;;
44110;SDS011;29774;52.664;5.074;2022-11-20T16:14:10;18.42;;;11.05;;
44110;SDS011;29774;52.664;5.074;2022-11-20T16:16:54;17.17;;;11.20;;
44110;SDS011;29774;52.664;5.074;2022-11-20T16:19:20;17.38;;;11.48;;
44110;SDS011;29774;52.664;5.074;2022-11-20T16:21:46;18.40;;;12.60;;